CPX31 Details

Departure: Tokyo-Narita International Airport (RJAA)
Arrival: Ted Stevens Anchorage International Airport (PANC)
Route: CUPID Y808 ALLEN Y812 SCORE R591 EHM R591 HAMND NEELL6


Current Weather Information
RJAA 232300Z 27006KT 230V320 9999 FEW030 21/15 Q1010 NOSIG
PANC 232253Z 06006KT 10SM FEW045 BKN100 OVC200 14/04 A3003 RMK AO2 SLPNO T01440039 $